Gonzalez, Florida
Current Conditions -  °F | °C
As of 6:22 AM on Saturday 20 Dec 2014 (Local Time) from KPNS Reporting Station
Light Rain Light Rain  
Wind Chill: 45°   Ceiling: 3400
Heat Index: 47°   Visibility: 2.5mi
Dew Point: 47°   Wind: 5mph
Humidity: 100%   Direction: 70°ENE
Pressure: 30.11"   Gusts: NA
Location:  30.58°N, 87.29°W
Report Text: KPNS 201222Z 07004KT 2 1/2SM -RA BR FEW026 OVC034 08/08 A3011 RMK AO2 P0002 T00830083
Loading
Personal Weather Stations






























Interactive Weather Map New forecast layout! Learn more

10-Day Weather Forecast

Advertisements
Track Severe Weather on mobile